sensor_id;sensor_type;location;lat;lon;timestamp;P1;durP1;ratioP1;P2;durP2;ratioP2
21038;SDS011;10678;51.002;4.786;2023-06-24T00:02:11;13.23;;;5.35;;
21038;SDS011;10678;51.002;4.786;2023-06-24T00:04:37;18.85;;;5.72;;
21038;SDS011;10678;51.002;4.786;2023-06-24T00:07:03;9.65;;;5.60;;
21038;SDS011;10678;51.002;4.786;2023-06-24T00:09:29;12.88;;;5.25;;
21038;SDS011;10678;51.002;4.786;2023-06-24T00:11:57;9.93;;;5.38;;
21038;SDS011;10678;51.002;4.786;2023-06-24T00:14:23;7.07;;;4.53;;
21038;SDS011;10678;51.002;4.786;2023-06-24T00:16:51;7.82;;;4.93;;
21038;SDS011;10678;51.002;4.786;2023-06-24T00:19:21;9.02;;;5.28;;
21038;SDS011;10678;51.002;4.786;2023-06-24T00:21:48;12.50;;;5.32;;
21038;SDS011;10678;51.002;4.786;2023-06-24T00:24:18;11.07;;;4.63;;
21038;SDS011;10678;51.002;4.786;2023-06-24T00:26:47;13.38;;;5.18;;
21038;SDS011;10678;51.002;4.786;2023-06-24T00:29:13;9.35;;;5.30;;
21038;SDS011;10678;51.002;4.786;2023-06-24T00:31:40;9.50;;;5.30;;
21038;SDS011;10678;51.002;4.786;2023-06-24T00:34:06;10.45;;;4.72;;
21038;SDS011;10678;51.002;4.786;2023-06-24T00:36:32;9.25;;;4.72;;
21038;SDS011;10678;51.002;4.786;2023-06-24T00:38:58;12.02;;;5.35;;
21038;SDS011;10678;51.002;4.786;2023-06-24T00:41:30;10.55;;;4.60;;
21038;SDS011;10678;51.002;4.786;2023-06-24T00:43:57;9.02;;;5.03;;
21038;SDS011;10678;51.002;4.786;2023-06-24T00:46:27;9.82;;;5.18;;
21038;SDS011;10678;51.002;4.786;2023-06-24T00:48:54;7.25;;;4.60;;
21038;SDS011;10678;51.002;4.786;2023-06-24T00:51:20;8.55;;;4.55;;
21038;SDS011;10678;51.002;4.786;2023-06-24T00:53:51;11.20;;;5.28;;
21038;SDS011;10678;51.002;4.786;2023-06-24T00:56:18;8.90;;;5.43;;
21038;SDS011;10678;51.002;4.786;2023-06-24T00:58:46;9.10;;;4.82;;
21038;SDS011;10678;51.002;4.786;2023-06-24T01:01:12;9.05;;;4.85;;
21038;SDS011;10678;51.002;4.786;2023-06-24T01:03:39;9.35;;;5.50;;
21038;SDS011;10678;51.002;4.786;2023-06-24T01:06:05;9.77;;;5.40;;
21038;SDS011;10678;51.002;4.786;2023-06-24T01:08:31;10.80;;;5.82;;
21038;SDS011;10678;51.002;4.786;2023-06-24T01:10:57;9.40;;;4.95;;
21038;SDS011;10678;51.002;4.786;2023-06-24T01:13:22;9.38;;;5.18;;
21038;SDS011;10678;51.002;4.786;2023-06-24T01:15:48;10.98;;;5.60;;
21038;SDS011;10678;51.002;4.786;2023-06-24T01:18:37;13.65;;;5.60;;
21038;SDS011;10678;51.002;4.786;2023-06-24T01:21:16;10.15;;;5.63;;
21038;SDS011;10678;51.002;4.786;2023-06-24T01:24:15;10.93;;;6.45;;
21038;SDS011;10678;51.002;4.786;2023-06-24T01:26:57;13.32;;;6.78;;
21038;SDS011;10678;51.002;4.786;2023-06-24T01:29:34;14.52;;;7.07;;
21038;SDS011;10678;51.002;4.786;2023-06-24T01:35:11;13.32;;;6.95;;
21038;SDS011;10678;51.002;4.786;2023-06-24T01:37:42;11.98;;;7.25;;
21038;SDS011;10678;51.002;4.786;2023-06-24T01:42:50;11.77;;;6.53;;
21038;SDS011;10678;51.002;4.786;2023-06-24T01:45:21;13.40;;;7.38;;
21038;SDS011;10678;51.002;4.786;2023-06-24T01:47:52;11.45;;;6.93;;
21038;SDS011;10678;51.002;4.786;2023-06-24T01:50:24;11.57;;;7.07;;
21038;SDS011;10678;51.002;4.786;2023-06-24T01:52:52;13.93;;;7.28;;
21038;SDS011;10678;51.002;4.786;2023-06-24T01:55:20;11.38;;;7.18;;
21038;SDS011;10678;51.002;4.786;2023-06-24T01:57:48;11.60;;;7.95;;
21038;SDS011;10678;51.002;4.786;2023-06-24T02:00:15;14.70;;;7.93;;
21038;SDS011;10678;51.002;4.786;2023-06-24T02:02:41;13.57;;;7.47;;
21038;SDS011;10678;51.002;4.786;2023-06-24T02:05:08;12.70;;;7.80;;
21038;SDS011;10678;51.002;4.786;2023-06-24T02:07:35;17.30;;;7.97;;
21038;SDS011;10678;51.002;4.786;2023-06-24T02:10:02;13.55;;;7.10;;
21038;SDS011;10678;51.002;4.786;2023-06-24T02:12:28;13.65;;;7.95;;
21038;SDS011;10678;51.002;4.786;2023-06-24T02:14:55;13.48;;;7.95;;
21038;SDS011;10678;51.002;4.786;2023-06-24T02:17:24;12.65;;;7.63;;
21038;SDS011;10678;51.002;4.786;2023-06-24T02:19:51;16.08;;;7.88;;
21038;SDS011;10678;51.002;4.786;2023-06-24T02:22:18;17.52;;;7.22;;
21038;SDS011;10678;51.002;4.786;2023-06-24T02:24:46;10.80;;;6.97;;
21038;SDS011;10678;51.002;4.786;2023-06-24T02:27:13;17.42;;;6.75;;
21038;SDS011;10678;51.002;4.786;2023-06-24T02:29:39;12.95;;;6.15;;
21038;SDS011;10678;51.002;4.786;2023-06-24T02:32:05;10.82;;;6.72;;
21038;SDS011;10678;51.002;4.786;2023-06-24T02:34:32;9.57;;;5.97;;
21038;SDS011;10678;51.002;4.786;2023-06-24T02:36:57;9.52;;;6.18;;
21038;SDS011;10678;51.002;4.786;2023-06-24T02:39:23;12.98;;;6.97;;
21038;SDS011;10678;51.002;4.786;2023-06-24T02:41:49;10.35;;;5.90;;
21038;SDS011;10678;51.002;4.786;2023-06-24T02:44:15;11.18;;;6.20;;
21038;SDS011;10678;51.002;4.786;2023-06-24T02:46:42;12.35;;;5.85;;
21038;SDS011;10678;51.002;4.786;2023-06-24T02:49:09;12.50;;;6.20;;
21038;SDS011;10678;51.002;4.786;2023-06-24T02:51:38;14.98;;;6.28;;
21038;SDS011;10678;51.002;4.786;2023-06-24T02:54:04;9.65;;;5.90;;
21038;SDS011;10678;51.002;4.786;2023-06-24T02:56:30;11.00;;;6.05;;
21038;SDS011;10678;51.002;4.786;2023-06-24T02:58:57;10.05;;;6.05;;
21038;SDS011;10678;51.002;4.786;2023-06-24T03:01:23;10.25;;;5.75;;
21038;SDS011;10678;51.002;4.786;2023-06-24T03:03:55;10.52;;;5.50;;
21038;SDS011;10678;51.002;4.786;2023-06-24T03:06:22;8.93;;;4.93;;
21038;SDS011;10678;51.002;4.786;2023-06-24T03:08:49;12.65;;;5.97;;
21038;SDS011;10678;51.002;4.786;2023-06-24T03:11:15;10.40;;;5.63;;
21038;SDS011;10678;51.002;4.786;2023-06-24T03:13:41;10.63;;;5.63;;
21038;SDS011;10678;51.002;4.786;2023-06-24T03:16:08;10.82;;;6.05;;
21038;SDS011;10678;51.002;4.786;2023-06-24T03:18:37;9.00;;;5.47;;
21038;SDS011;10678;51.002;4.786;2023-06-24T03:21:04;8.52;;;5.85;;
21038;SDS011;10678;51.002;4.786;2023-06-24T03:23:31;11.63;;;5.50;;
21038;SDS011;10678;51.002;4.786;2023-06-24T03:25:56;11.20;;;5.25;;
21038;SDS011;10678;51.002;4.786;2023-06-24T03:28:22;12.45;;;5.55;;
21038;SDS011;10678;51.002;4.786;2023-06-24T03:30:48;12.00;;;5.55;;
21038;SDS011;10678;51.002;4.786;2023-06-24T03:33:13;11.65;;;5.15;;
21038;SDS011;10678;51.002;4.786;2023-06-24T03:35:42;8.43;;;5.47;;
21038;SDS011;10678;51.002;4.786;2023-06-24T03:38:08;10.98;;;5.15;;
21038;SDS011;10678;51.002;4.786;2023-06-24T03:40:34;9.15;;;4.68;;
21038;SDS011;10678;51.002;4.786;2023-06-24T03:42:59;11.32;;;5.45;;
21038;SDS011;10678;51.002;4.786;2023-06-24T03:45:25;10.02;;;5.25;;
21038;SDS011;10678;51.002;4.786;2023-06-24T03:47:51;11.32;;;5.43;;
21038;SDS011;10678;51.002;4.786;2023-06-24T03:50:16;10.48;;;5.25;;
21038;SDS011;10678;51.002;4.786;2023-06-24T03:52:42;10.85;;;5.97;;
21038;SDS011;10678;51.002;4.786;2023-06-24T03:55:09;8.82;;;5.35;;
21038;SDS011;10678;51.002;4.786;2023-06-24T03:57:35;10.02;;;5.03;;
21038;SDS011;10678;51.002;4.786;2023-06-24T04:00:02;8.30;;;4.72;;
21038;SDS011;10678;51.002;4.786;2023-06-24T04:02:37;11.80;;;5.00;;
21038;SDS011;10678;51.002;4.786;2023-06-24T04:05:03;11.07;;;4.63;;
21038;SDS011;10678;51.002;4.786;2023-06-24T04:07:31;9.80;;;4.57;;
21038;SDS011;10678;51.002;4.786;2023-06-24T04:09:57;11.93;;;4.93;;
21038;SDS011;10678;51.002;4.786;2023-06-24T04:12:22;8.57;;;4.80;;
21038;SDS011;10678;51.002;4.786;2023-06-24T04:14:49;10.88;;;5.13;;
21038;SDS011;10678;51.002;4.786;2023-06-24T04:17:14;11.15;;;4.93;;
21038;SDS011;10678;51.002;4.786;2023-06-24T04:19:40;8.65;;;4.90;;
21038;SDS011;10678;51.002;4.786;2023-06-24T04:22:07;8.38;;;4.70;;
21038;SDS011;10678;51.002;4.786;2023-06-24T04:24:32;8.10;;;4.32;;
21038;SDS011;10678;51.002;4.786;2023-06-24T04:26:58;11.18;;;5.78;;
21038;SDS011;10678;51.002;4.786;2023-06-24T04:29:23;9.10;;;4.80;;
21038;SDS011;10678;51.002;4.786;2023-06-24T04:31:49;9.20;;;5.10;;
21038;SDS011;10678;51.002;4.786;2023-06-24T04:34:15;8.13;;;5.25;;
21038;SDS011;10678;51.002;4.786;2023-06-24T04:36:40;10.98;;;4.45;;
21038;SDS011;10678;51.002;4.786;2023-06-24T04:39:06;8.90;;;4.90;;
21038;SDS011;10678;51.002;4.786;2023-06-24T04:41:33;10.00;;;4.68;;
21038;SDS011;10678;51.002;4.786;2023-06-24T04:43:58;8.13;;;4.65;;
21038;SDS011;10678;51.002;4.786;2023-06-24T04:46:24;12.55;;;5.25;;
21038;SDS011;10678;51.002;4.786;2023-06-24T04:48:50;8.48;;;4.82;;
21038;SDS011;10678;51.002;4.786;2023-06-24T04:51:15;7.22;;;4.28;;
21038;SDS011;10678;51.002;4.786;2023-06-24T04:53:41;9.23;;;4.30;;
21038;SDS011;10678;51.002;4.786;2023-06-24T04:56:07;9.40;;;4.47;;
21038;SDS011;10678;51.002;4.786;2023-06-24T04:58:32;9.07;;;4.95;;
21038;SDS011;10678;51.002;4.786;2023-06-24T05:00:58;9.07;;;4.18;;
21038;SDS011;10678;51.002;4.786;2023-06-24T05:03:24;10.02;;;4.43;;
21038;SDS011;10678;51.002;4.786;2023-06-24T05:05:50;13.32;;;4.25;;
21038;SDS011;10678;51.002;4.786;2023-06-24T05:08:15;7.97;;;4.28;;
21038;SDS011;10678;51.002;4.786;2023-06-24T05:10:41;9.55;;;4.22;;
21038;SDS011;10678;51.002;4.786;2023-06-24T05:13:06;11.88;;;4.35;;
21038;SDS011;10678;51.002;4.786;2023-06-24T05:15:32;8.15;;;3.85;;
21038;SDS011;10678;51.002;4.786;2023-06-24T05:17:58;11.55;;;4.57;;
21038;SDS011;10678;51.002;4.786;2023-06-24T05:20:23;8.02;;;3.90;;
21038;SDS011;10678;51.002;4.786;2023-06-24T05:22:49;7.07;;;4.00;;
21038;SDS011;10678;51.002;4.786;2023-06-24T05:25:14;12.73;;;3.90;;
21038;SDS011;10678;51.002;4.786;2023-06-24T05:27:40;6.55;;;3.85;;
21038;SDS011;10678;51.002;4.786;2023-06-24T05:30:06;8.77;;;3.70;;
21038;SDS011;10678;51.002;4.786;2023-06-24T05:32:32;7.10;;;3.67;;
21038;SDS011;10678;51.002;4.786;2023-06-24T05:34:57;6.95;;;4.15;;
21038;SDS011;10678;51.002;4.786;2023-06-24T05:37:23;9.95;;;4.88;;
21038;SDS011;10678;51.002;4.786;2023-06-24T05:39:48;9.52;;;4.05;;
21038;SDS011;10678;51.002;4.786;2023-06-24T05:42:14;14.00;;;4.03;;
21038;SDS011;10678;51.002;4.786;2023-06-24T05:44:40;9.32;;;4.13;;
21038;SDS011;10678;51.002;4.786;2023-06-24T05:47:05;8.90;;;3.60;;
21038;SDS011;10678;51.002;4.786;2023-06-24T05:49:31;8.32;;;3.78;;
21038;SDS011;10678;51.002;4.786;2023-06-24T05:51:57;7.68;;;3.88;;
21038;SDS011;10678;51.002;4.786;2023-06-24T05:54:23;9.18;;;3.97;;
21038;SDS011;10678;51.002;4.786;2023-06-24T05:56:48;7.55;;;4.10;;
21038;SDS011;10678;51.002;4.786;2023-06-24T05:59:14;8.85;;;4.47;;
21038;SDS011;10678;51.002;4.786;2023-06-24T06:01:40;10.15;;;4.13;;
21038;SDS011;10678;51.002;4.786;2023-06-24T06:04:05;15.35;;;4.10;;
21038;SDS011;10678;51.002;4.786;2023-06-24T06:06:31;7.22;;;3.90;;
21038;SDS011;10678;51.002;4.786;2023-06-24T06:08:57;8.20;;;4.07;;
21038;SDS011;10678;51.002;4.786;2023-06-24T06:11:22;9.88;;;3.53;;
21038;SDS011;10678;51.002;4.786;2023-06-24T06:13:48;8.98;;;3.50;;
21038;SDS011;10678;51.002;4.786;2023-06-24T06:16:14;7.07;;;3.63;;
21038;SDS011;10678;51.002;4.786;2023-06-24T06:18:39;6.50;;;3.60;;
21038;SDS011;10678;51.002;4.786;2023-06-24T06:21:05;11.02;;;3.30;;
21038;SDS011;10678;51.002;4.786;2023-06-24T06:23:30;10.23;;;3.35;;
21038;SDS011;10678;51.002;4.786;2023-06-24T06:25:56;7.30;;;3.50;;
21038;SDS011;10678;51.002;4.786;2023-06-24T06:28:22;11.27;;;3.25;;
21038;SDS011;10678;51.002;4.786;2023-06-24T06:30:47;8.70;;;3.25;;
21038;SDS011;10678;51.002;4.786;2023-06-24T06:33:13;6.07;;;2.72;;
21038;SDS011;10678;51.002;4.786;2023-06-24T06:35:38;7.30;;;3.50;;
21038;SDS011;10678;51.002;4.786;2023-06-24T06:38:04;7.13;;;2.95;;
21038;SDS011;10678;51.002;4.786;2023-06-24T06:40:30;10.43;;;3.67;;
21038;SDS011;10678;51.002;4.786;2023-06-24T06:42:56;8.43;;;2.92;;
21038;SDS011;10678;51.002;4.786;2023-06-24T06:45:21;6.82;;;3.20;;
21038;SDS011;10678;51.002;4.786;2023-06-24T06:47:48;6.43;;;3.00;;
21038;SDS011;10678;51.002;4.786;2023-06-24T06:50:15;8.73;;;2.90;;
21038;SDS011;10678;51.002;4.786;2023-06-24T06:52:41;11.93;;;3.40;;
21038;SDS011;10678;51.002;4.786;2023-06-24T06:55:06;11.65;;;3.13;;
21038;SDS011;10678;51.002;4.786;2023-06-24T06:57:32;8.18;;;3.50;;
21038;SDS011;10678;51.002;4.786;2023-06-24T06:59:58;9.52;;;2.90;;
21038;SDS011;10678;51.002;4.786;2023-06-24T07:02:23;9.07;;;3.03;;
21038;SDS011;10678;51.002;4.786;2023-06-24T07:04:49;8.73;;;3.63;;
21038;SDS011;10678;51.002;4.786;2023-06-24T07:07:16;8.75;;;3.20;;
21038;SDS011;10678;51.002;4.786;2023-06-24T07:09:41;9.13;;;3.03;;
21038;SDS011;10678;51.002;4.786;2023-06-24T07:12:07;6.72;;;3.08;;
21038;SDS011;10678;51.002;4.786;2023-06-24T07:14:33;7.95;;;3.50;;
21038;SDS011;10678;51.002;4.786;2023-06-24T07:16:59;11.10;;;3.45;;
21038;SDS011;10678;51.002;4.786;2023-06-24T07:19:25;7.10;;;3.20;;
21038;SDS011;10678;51.002;4.786;2023-06-24T07:21:51;8.13;;;3.60;;
21038;SDS011;10678;51.002;4.786;2023-06-24T07:24:16;6.80;;;3.15;;
21038;SDS011;10678;51.002;4.786;2023-06-24T07:26:42;10.95;;;2.75;;
21038;SDS011;10678;51.002;4.786;2023-06-24T07:29:08;6.90;;;3.17;;
21038;SDS011;10678;51.002;4.786;2023-06-24T07:31:37;10.15;;;3.60;;
21038;SDS011;10678;51.002;4.786;2023-06-24T07:34:02;10.30;;;3.47;;
21038;SDS011;10678;51.002;4.786;2023-06-24T07:36:28;6.40;;;3.38;;
21038;SDS011;10678;51.002;4.786;2023-06-24T07:38:54;6.03;;;2.88;;
21038;SDS011;10678;51.002;4.786;2023-06-24T07:41:19;9.38;;;3.30;;
21038;SDS011;10678;51.002;4.786;2023-06-24T07:43:45;8.23;;;2.88;;
21038;SDS011;10678;51.002;4.786;2023-06-24T07:46:11;6.47;;;2.60;;
21038;SDS011;10678;51.002;4.786;2023-06-24T07:48:36;7.25;;;2.80;;
21038;SDS011;10678;51.002;4.786;2023-06-24T07:51:02;7.90;;;2.60;;
21038;SDS011;10678;51.002;4.786;2023-06-24T07:53:27;7.15;;;3.25;;
21038;SDS011;10678;51.002;4.786;2023-06-24T07:55:53;8.10;;;2.95;;
21038;SDS011;10678;51.002;4.786;2023-06-24T07:58:19;5.55;;;2.60;;
21038;SDS011;10678;51.002;4.786;2023-06-24T08:00:44;5.20;;;2.40;;
21038;SDS011;10678;51.002;4.786;2023-06-24T08:03:11;8.15;;;3.10;;
21038;SDS011;10678;51.002;4.786;2023-06-24T08:05:37;6.40;;;2.33;;
21038;SDS011;10678;51.002;4.786;2023-06-24T08:08:04;6.82;;;2.40;;
21038;SDS011;10678;51.002;4.786;2023-06-24T08:10:30;8.82;;;2.55;;
21038;SDS011;10678;51.002;4.786;2023-06-24T08:12:56;8.60;;;2.42;;
21038;SDS011;10678;51.002;4.786;2023-06-24T08:15:21;6.07;;;2.30;;
21038;SDS011;10678;51.002;4.786;2023-06-24T08:17:54;4.97;;;2.22;;
21038;SDS011;10678;51.002;4.786;2023-06-24T08:20:20;7.60;;;2.10;;
21038;SDS011;10678;51.002;4.786;2023-06-24T08:22:49;4.03;;;1.92;;
21038;SDS011;10678;51.002;4.786;2023-06-24T08:25:15;4.72;;;2.20;;
21038;SDS011;10678;51.002;4.786;2023-06-24T08:27:40;4.90;;;2.03;;
21038;SDS011;10678;51.002;4.786;2023-06-24T08:30:06;4.78;;;1.98;;
21038;SDS011;10678;51.002;4.786;2023-06-24T08:32:32;7.07;;;2.00;;
21038;SDS011;10678;51.002;4.786;2023-06-24T08:34:58;5.88;;;1.92;;
21038;SDS011;10678;51.002;4.786;2023-06-24T08:37:24;5.25;;;1.98;;
21038;SDS011;10678;51.002;4.786;2023-06-24T08:39:50;7.75;;;2.00;;
21038;SDS011;10678;51.002;4.786;2023-06-24T08:42:15;10.18;;;2.10;;
21038;SDS011;10678;51.002;4.786;2023-06-24T08:44:41;5.82;;;1.85;;
21038;SDS011;10678;51.002;4.786;2023-06-24T08:47:07;5.80;;;2.10;;
21038;SDS011;10678;51.002;4.786;2023-06-24T08:49:32;7.05;;;1.88;;
21038;SDS011;10678;51.002;4.786;2023-06-24T08:52:08;4.45;;;1.65;;
21038;SDS011;10678;51.002;4.786;2023-06-24T08:54:38;5.22;;;1.80;;
21038;SDS011;10678;51.002;4.786;2023-06-24T08:57:06;4.97;;;1.50;;
21038;SDS011;10678;51.002;4.786;2023-06-24T08:59:36;4.53;;;1.50;;
21038;SDS011;10678;51.002;4.786;2023-06-24T09:02:02;5.68;;;1.95;;
21038;SDS011;10678;51.002;4.786;2023-06-24T09:04:28;4.85;;;1.55;;
21038;SDS011;10678;51.002;4.786;2023-06-24T09:06:54;5.75;;;1.65;;
21038;SDS011;10678;51.002;4.786;2023-06-24T09:09:20;4.13;;;1.70;;
21038;SDS011;10678;51.002;4.786;2023-06-24T09:11:57;3.95;;;1.42;;
21038;SDS011;10678;51.002;4.786;2023-06-24T09:14:24;4.05;;;1.58;;
21038;SDS011;10678;51.002;4.786;2023-06-24T09:17:08;4.22;;;1.73;;
21038;SDS011;10678;51.002;4.786;2023-06-24T09:19:34;4.50;;;1.80;;
21038;SDS011;10678;51.002;4.786;2023-06-24T09:22:04;3.78;;;1.40;;
21038;SDS011;10678;51.002;4.786;2023-06-24T09:24:35;4.45;;;1.83;;
21038;SDS011;10678;51.002;4.786;2023-06-24T09:27:02;4.90;;;1.52;;
21038;SDS011;10678;51.002;4.786;2023-06-24T09:29:31;5.55;;;1.77;;
21038;SDS011;10678;51.002;4.786;2023-06-24T09:31:57;4.63;;;1.75;;
21038;SDS011;10678;51.002;4.786;2023-06-24T09:34:25;6.15;;;2.15;;
21038;SDS011;10678;51.002;4.786;2023-06-24T09:36:52;4.22;;;1.58;;
21038;SDS011;10678;51.002;4.786;2023-06-24T09:39:18;3.72;;;1.83;;
21038;SDS011;10678;51.002;4.786;2023-06-24T09:41:49;5.38;;;1.80;;
21038;SDS011;10678;51.002;4.786;2023-06-24T09:44:15;4.15;;;1.40;;
21038;SDS011;10678;51.002;4.786;2023-06-24T09:46:44;6.32;;;1.80;;
21038;SDS011;10678;51.002;4.786;2023-06-24T09:49:10;6.22;;;1.55;;
21038;SDS011;10678;51.002;4.786;2023-06-24T09:51:39;6.13;;;1.70;;
21038;SDS011;10678;51.002;4.786;2023-06-24T09:54:08;6.30;;;1.83;;
21038;SDS011;10678;51.002;4.786;2023-06-24T09:56:36;6.15;;;2.00;;
21038;SDS011;10678;51.002;4.786;2023-06-24T09:59:03;7.20;;;1.30;;
21038;SDS011;10678;51.002;4.786;2023-06-24T10:01:31;4.32;;;1.50;;
21038;SDS011;10678;51.002;4.786;2023-06-24T10:04:02;4.07;;;1.70;;
21038;SDS011;10678;51.002;4.786;2023-06-24T10:06:28;6.88;;;1.70;;
21038;SDS011;10678;51.002;4.786;2023-06-24T10:08:55;5.10;;;1.63;;
21038;SDS011;10678;51.002;4.786;2023-06-24T10:11:21;3.92;;;1.40;;
21038;SDS011;10678;51.002;4.786;2023-06-24T10:13:47;6.03;;;1.67;;
21038;SDS011;10678;51.002;4.786;2023-06-24T10:16:13;3.88;;;1.45;;
21038;SDS011;10678;51.002;4.786;2023-06-24T10:18:40;5.22;;;1.55;;
21038;SDS011;10678;51.002;4.786;2023-06-24T10:21:08;5.07;;;1.83;;
21038;SDS011;10678;51.002;4.786;2023-06-24T10:23:41;6.32;;;1.50;;
21038;SDS011;10678;51.002;4.786;2023-06-24T10:39:46;3.85;;;1.50;;
21038;SDS011;10678;51.002;4.786;2023-06-24T10:44:58;5.25;;;1.38;;
21038;SDS011;10678;51.002;4.786;2023-06-24T10:47:28;3.35;;;1.40;;
21038;SDS011;10678;51.002;4.786;2023-06-24T10:49:54;3.72;;;1.60;;
21038;SDS011;10678;51.002;4.786;2023-06-24T10:52:21;3.20;;;1.40;;
21038;SDS011;10678;51.002;4.786;2023-06-24T10:54:48;4.40;;;1.60;;
21038;SDS011;10678;51.002;4.786;2023-06-24T10:57:14;3.58;;;1.30;;
21038;SDS011;10678;51.002;4.786;2023-06-24T10:59:48;5.25;;;1.50;;
21038;SDS011;10678;51.002;4.786;2023-06-24T11:02:15;3.95;;;1.27;;
21038;SDS011;10678;51.002;4.786;2023-06-24T11:04:43;6.97;;;1.70;;
21038;SDS011;10678;51.002;4.786;2023-06-24T11:07:08;4.65;;;1.40;;
21038;SDS011;10678;51.002;4.786;2023-06-24T11:09:34;7.93;;;1.52;;
21038;SDS011;10678;51.002;4.786;2023-06-24T11:12:02;6.53;;;1.55;;
21038;SDS011;10678;51.002;4.786;2023-06-24T11:14:28;5.70;;;1.30;;
21038;SDS011;10678;51.002;4.786;2023-06-24T11:16:53;3.20;;;1.30;;
21038;SDS011;10678;51.002;4.786;2023-06-24T11:19:19;2.78;;;1.20;;
21038;SDS011;10678;51.002;4.786;2023-06-24T11:21:45;4.00;;;1.40;;
21038;SDS011;10678;51.002;4.786;2023-06-24T11:24:11;4.38;;;1.55;;
21038;SDS011;10678;51.002;4.786;2023-06-24T11:26:37;3.28;;;1.33;;
21038;SDS011;10678;51.002;4.786;2023-06-24T11:29:12;3.40;;;1.40;;
21038;SDS011;10678;51.002;4.786;2023-06-24T11:31:38;4.05;;;1.48;;
21038;SDS011;10678;51.002;4.786;2023-06-24T11:34:04;3.60;;;1.50;;
21038;SDS011;10678;51.002;4.786;2023-06-24T11:36:29;4.60;;;1.65;;
21038;SDS011;10678;51.002;4.786;2023-06-24T11:38:55;4.22;;;1.27;;
21038;SDS011;10678;51.002;4.786;2023-06-24T11:41:21;3.53;;;1.50;;
21038;SDS011;10678;51.002;4.786;2023-06-24T11:43:47;4.68;;;1.52;;
21038;SDS011;10678;51.002;4.786;2023-06-24T11:46:23;4.40;;;1.33;;
21038;SDS011;10678;51.002;4.786;2023-06-24T11:49:06;5.53;;;1.45;;
21038;SDS011;10678;51.002;4.786;2023-06-24T11:51:32;4.07;;;1.48;;
21038;SDS011;10678;51.002;4.786;2023-06-24T11:53:59;3.38;;;1.45;;
21038;SDS011;10678;51.002;4.786;2023-06-24T11:56:36;3.95;;;1.60;;
21038;SDS011;10678;51.002;4.786;2023-06-24T11:59:06;4.63;;;1.38;;
21038;SDS011;10678;51.002;4.786;2023-06-24T12:01:32;5.40;;;1.50;;
21038;SDS011;10678;51.002;4.786;2023-06-24T12:04:02;3.13;;;1.17;;
21038;SDS011;10678;51.002;4.786;2023-06-24T12:06:35;3.65;;;1.15;;
21038;SDS011;10678;51.002;4.786;2023-06-24T12:09:00;3.05;;;1.27;;
21038;SDS011;10678;51.002;4.786;2023-06-24T12:11:26;2.80;;;1.10;;
21038;SDS011;10678;51.002;4.786;2023-06-24T12:13:52;4.22;;;1.58;;
21038;SDS011;10678;51.002;4.786;2023-06-24T12:16:18;4.13;;;1.70;;
21038;SDS011;10678;51.002;4.786;2023-06-24T12:18:43;4.03;;;1.27;;
21038;SDS011;10678;51.002;4.786;2023-06-24T12:21:09;4.68;;;1.70;;
21038;SDS011;10678;51.002;4.786;2023-06-24T12:23:35;2.72;;;1.23;;
21038;SDS011;10678;51.002;4.786;2023-06-24T12:26:01;3.55;;;1.25;;
21038;SDS011;10678;51.002;4.786;2023-06-24T12:28:27;3.55;;;1.65;;
21038;SDS011;10678;51.002;4.786;2023-06-24T12:30:52;4.00;;;1.48;;
21038;SDS011;10678;51.002;4.786;2023-06-24T12:33:18;3.67;;;1.42;;
21038;SDS011;10678;51.002;4.786;2023-06-24T12:35:45;3.33;;;1.40;;
21038;SDS011;10678;51.002;4.786;2023-06-24T12:38:11;3.80;;;1.45;;
21038;SDS011;10678;51.002;4.786;2023-06-24T12:40:37;6.20;;;1.50;;
21038;SDS011;10678;51.002;4.786;2023-06-24T12:43:02;3.97;;;1.25;;
21038;SDS011;10678;51.002;4.786;2023-06-24T12:45:29;3.67;;;1.40;;
21038;SDS011;10678;51.002;4.786;2023-06-24T12:47:55;3.92;;;1.38;;
21038;SDS011;10678;51.002;4.786;2023-06-24T12:50:20;3.33;;;1.50;;
21038;SDS011;10678;51.002;4.786;2023-06-24T12:52:46;4.60;;;1.30;;
21038;SDS011;10678;51.002;4.786;2023-06-24T12:55:11;3.33;;;1.50;;
21038;SDS011;10678;51.002;4.786;2023-06-24T12:57:37;3.83;;;1.58;;
21038;SDS011;10678;51.002;4.786;2023-06-24T13:00:03;5.50;;;1.77;;
21038;SDS011;10678;51.002;4.786;2023-06-24T13:02:33;3.63;;;1.60;;
21038;SDS011;10678;51.002;4.786;2023-06-24T13:05:00;3.60;;;1.40;;
21038;SDS011;10678;51.002;4.786;2023-06-24T13:07:25;4.28;;;1.60;;
21038;SDS011;10678;51.002;4.786;2023-06-24T13:09:51;3.28;;;1.45;;
21038;SDS011;10678;51.002;4.786;2023-06-24T13:12:17;3.25;;;1.27;;
21038;SDS011;10678;51.002;4.786;2023-06-24T13:14:42;6.88;;;1.70;;
21038;SDS011;10678;51.002;4.786;2023-06-24T13:17:08;3.58;;;1.50;;
21038;SDS011;10678;51.002;4.786;2023-06-24T13:19:33;4.75;;;1.60;;
21038;SDS011;10678;51.002;4.786;2023-06-24T13:21:59;5.88;;;1.55;;
21038;SDS011;10678;51.002;4.786;2023-06-24T13:24:25;6.35;;;1.80;;
21038;SDS011;10678;51.002;4.786;2023-06-24T13:26:51;3.90;;;1.40;;
21038;SDS011;10678;51.002;4.786;2023-06-24T13:29:17;4.65;;;1.45;;
21038;SDS011;10678;51.002;4.786;2023-06-24T13:31:44;4.45;;;1.70;;
21038;SDS011;10678;51.002;4.786;2023-06-24T13:34:10;3.92;;;1.50;;
21038;SDS011;10678;51.002;4.786;2023-06-24T13:36:36;5.18;;;1.70;;
21038;SDS011;10678;51.002;4.786;2023-06-24T13:39:06;4.72;;;1.63;;
21038;SDS011;10678;51.002;4.786;2023-06-24T13:41:33;4.38;;;1.52;;
21038;SDS011;10678;51.002;4.786;2023-06-24T13:43:59;7.07;;;1.70;;
21038;SDS011;10678;51.002;4.786;2023-06-24T13:46:29;3.47;;;1.63;;
21038;SDS011;10678;51.002;4.786;2023-06-24T13:48:56;3.45;;;1.15;;
21038;SDS011;10678;51.002;4.786;2023-06-24T13:51:25;3.63;;;1.58;;
21038;SDS011;10678;51.002;4.786;2023-06-24T13:53:51;3.70;;;1.67;;
21038;SDS011;10678;51.002;4.786;2023-06-24T13:56:18;5.43;;;1.70;;
21038;SDS011;10678;51.002;4.786;2023-06-24T13:58:45;9.68;;;1.83;;
21038;SDS011;10678;51.002;4.786;2023-06-24T14:01:11;4.88;;;1.88;;
21038;SDS011;10678;51.002;4.786;2023-06-24T14:03:37;7.10;;;2.03;;
21038;SDS011;10678;51.002;4.786;2023-06-24T14:06:03;3.83;;;1.60;;
21038;SDS011;10678;51.002;4.786;2023-06-24T14:08:29;4.88;;;1.48;;
21038;SDS011;10678;51.002;4.786;2023-06-24T14:10:56;4.75;;;1.30;;
21038;SDS011;10678;51.002;4.786;2023-06-24T14:13:22;3.97;;;1.60;;
21038;SDS011;10678;51.002;4.786;2023-06-24T14:15:48;3.88;;;1.70;;
21038;SDS011;10678;51.002;4.786;2023-06-24T14:18:13;3.83;;;1.60;;
21038;SDS011;10678;51.002;4.786;2023-06-24T14:20:39;3.42;;;1.40;;
21038;SDS011;10678;51.002;4.786;2023-06-24T14:23:05;3.97;;;1.77;;
21038;SDS011;10678;51.002;4.786;2023-06-24T14:25:30;4.13;;;1.60;;
21038;SDS011;10678;51.002;4.786;2023-06-24T14:27:56;4.85;;;1.83;;
21038;SDS011;10678;51.002;4.786;2023-06-24T14:30:22;3.97;;;1.73;;
21038;SDS011;10678;51.002;4.786;2023-06-24T14:32:47;3.80;;;1.63;;
21038;SDS011;10678;51.002;4.786;2023-06-24T14:35:13;4.80;;;1.67;;
21038;SDS011;10678;51.002;4.786;2023-06-24T14:37:38;4.45;;;1.70;;
21038;SDS011;10678;51.002;4.786;2023-06-24T14:40:05;4.90;;;1.83;;
21038;SDS011;10678;51.002;4.786;2023-06-24T14:42:31;3.40;;;1.45;;
21038;SDS011;10678;51.002;4.786;2023-06-24T14:44:56;4.45;;;1.85;;
21038;SDS011;10678;51.002;4.786;2023-06-24T14:47:22;4.03;;;1.52;;
21038;SDS011;10678;51.002;4.786;2023-06-24T14:49:49;3.50;;;1.50;;
21038;SDS011;10678;51.002;4.786;2023-06-24T14:52:14;4.15;;;1.33;;
21038;SDS011;10678;51.002;4.786;2023-06-24T14:54:40;3.60;;;1.60;;
21038;SDS011;10678;51.002;4.786;2023-06-24T14:57:06;5.53;;;1.42;;
21038;SDS011;10678;51.002;4.786;2023-06-24T14:59:31;5.65;;;1.98;;
21038;SDS011;10678;51.002;4.786;2023-06-24T15:01:57;4.80;;;1.42;;
21038;SDS011;10678;51.002;4.786;2023-06-24T15:04:22;4.95;;;1.45;;